sensor_id;sensor_type;location;lat;lon;timestamp;P1;durP1;ratioP1;P2;durP2;ratioP2
49237;SDS011;35069;47.906;1.892;2022-11-15T00:01:39;11.80;;;1.73;;
49237;SDS011;35069;47.906;1.892;2022-11-15T00:04:05;7.25;;;2.15;;
49237;SDS011;35069;47.906;1.892;2022-11-15T00:06:32;6.70;;;1.98;;
49237;SDS011;35069;47.906;1.892;2022-11-15T00:08:58;9.90;;;2.10;;
49237;SDS011;35069;47.906;1.892;2022-11-15T00:11:23;10.10;;;1.95;;
49237;SDS011;35069;47.906;1.892;2022-11-15T00:13:49;6.40;;;1.38;;
49237;SDS011;35069;47.906;1.892;2022-11-15T00:16:15;5.10;;;1.70;;
49237;SDS011;35069;47.906;1.892;2022-11-15T00:18:40;9.43;;;3.00;;
49237;SDS011;35069;47.906;1.892;2022-11-15T00:21:07;8.02;;;1.92;;
49237;SDS011;35069;47.906;1.892;2022-11-15T00:23:36;2.35;;;1.85;;
49237;SDS011;35069;47.906;1.892;2022-11-15T00:26:02;4.45;;;1.80;;
49237;SDS011;35069;47.906;1.892;2022-11-15T00:28:28;9.23;;;2.00;;
49237;SDS011;35069;47.906;1.892;2022-11-15T00:30:59;4.55;;;1.48;;
49237;SDS011;35069;47.906;1.892;2022-11-15T00:33:29;6.45;;;1.67;;
49237;SDS011;35069;47.906;1.892;2022-11-15T00:36:02;9.30;;;1.73;;
49237;SDS011;35069;47.906;1.892;2022-11-15T00:38:35;2.95;;;1.40;;
49237;SDS011;35069;47.906;1.892;2022-11-15T00:41:03;2.15;;;1.38;;
49237;SDS011;35069;47.906;1.892;2022-11-15T00:43:29;8.30;;;1.60;;
49237;SDS011;35069;47.906;1.892;2022-11-15T00:45:55;6.13;;;2.92;;
49237;SDS011;35069;47.906;1.892;2022-11-15T00:48:21;3.65;;;1.90;;
49237;SDS011;35069;47.906;1.892;2022-11-15T00:50:47;1.92;;;1.48;;
49237;SDS011;35069;47.906;1.892;2022-11-15T00:53:14;4.68;;;1.50;;
49237;SDS011;35069;47.906;1.892;2022-11-15T00:55:40;4.25;;;1.77;;
49237;SDS011;35069;47.906;1.892;2022-11-15T00:58:05;7.82;;;2.40;;
49237;SDS011;35069;47.906;1.892;2022-11-15T01:00:31;5.55;;;2.30;;
49237;SDS011;35069;47.906;1.892;2022-11-15T01:02:56;8.48;;;2.28;;
49237;SDS011;35069;47.906;1.892;2022-11-15T01:05:22;5.55;;;1.75;;
49237;SDS011;35069;47.906;1.892;2022-11-15T01:07:51;6.15;;;2.15;;
49237;SDS011;35069;47.906;1.892;2022-11-15T01:10:18;3.35;;;2.50;;
49237;SDS011;35069;47.906;1.892;2022-11-15T01:12:44;3.97;;;1.80;;
49237;SDS011;35069;47.906;1.892;2022-11-15T01:15:09;6.93;;;2.30;;
49237;SDS011;35069;47.906;1.892;2022-11-15T01:17:35;8.27;;;1.60;;
49237;SDS011;35069;47.906;1.892;2022-11-15T01:20:00;8.82;;;1.92;;
49237;SDS011;35069;47.906;1.892;2022-11-15T01:22:26;7.05;;;2.17;;
49237;SDS011;35069;47.906;1.892;2022-11-15T01:24:52;4.07;;;1.15;;
49237;SDS011;35069;47.906;1.892;2022-11-15T01:27:18;4.07;;;1.48;;
49237;SDS011;35069;47.906;1.892;2022-11-15T01:29:43;8.48;;;1.73;;
49237;SDS011;35069;47.906;1.892;2022-11-15T01:32:09;7.80;;;2.05;;
49237;SDS011;35069;47.906;1.892;2022-11-15T01:34:34;6.25;;;1.77;;
49237;SDS011;35069;47.906;1.892;2022-11-15T01:37:00;4.40;;;1.75;;
49237;SDS011;35069;47.906;1.892;2022-11-15T01:39:26;4.35;;;1.90;;
49237;SDS011;35069;47.906;1.892;2022-11-15T01:41:51;9.27;;;1.85;;
49237;SDS011;35069;47.906;1.892;2022-11-15T01:47:02;7.95;;;2.25;;
49237;SDS011;35069;47.906;1.892;2022-11-15T01:49:33;6.47;;;2.00;;
49237;SDS011;35069;47.906;1.892;2022-11-15T01:52:00;4.53;;;1.80;;
49237;SDS011;35069;47.906;1.892;2022-11-15T01:54:28;4.47;;;1.63;;
49237;SDS011;35069;47.906;1.892;2022-11-15T01:57:05;3.15;;;1.80;;
49237;SDS011;35069;47.906;1.892;2022-11-15T01:59:34;7.07;;;1.52;;
49237;SDS011;35069;47.906;1.892;2022-11-15T02:02:00;2.55;;;1.80;;
49237;SDS011;35069;47.906;1.892;2022-11-15T02:04:27;9.20;;;1.80;;
49237;SDS011;35069;47.906;1.892;2022-11-15T02:06:56;4.72;;;1.58;;
49237;SDS011;35069;47.906;1.892;2022-11-15T02:09:22;5.28;;;2.00;;
49237;SDS011;35069;47.906;1.892;2022-11-15T02:11:47;8.88;;;1.70;;
49237;SDS011;35069;47.906;1.892;2022-11-15T02:14:15;8.05;;;2.25;;
49237;SDS011;35069;47.906;1.892;2022-11-15T02:28:10;5.35;;;1.92;;
49237;SDS011;35069;47.906;1.892;2022-11-15T02:30:57;6.70;;;1.80;;
49237;SDS011;35069;47.906;1.892;2022-11-15T02:36:29;8.23;;;1.95;;
49237;SDS011;35069;47.906;1.892;2022-11-15T02:39:19;5.18;;;2.33;;
49237;SDS011;35069;47.906;1.892;2022-11-15T02:41:57;6.78;;;2.35;;
49237;SDS011;35069;47.906;1.892;2022-11-15T02:44:58;9.13;;;2.17;;
49237;SDS011;35069;47.906;1.892;2022-11-15T02:47:30;8.50;;;1.95;;
49237;SDS011;35069;47.906;1.892;2022-11-15T02:50:07;9.38;;;2.20;;
49237;SDS011;35069;47.906;1.892;2022-11-15T02:52:35;5.93;;;2.38;;
49237;SDS011;35069;47.906;1.892;2022-11-15T02:55:01;9.30;;;2.10;;
49237;SDS011;35069;47.906;1.892;2022-11-15T02:59:59;10.15;;;2.03;;
49237;SDS011;35069;47.906;1.892;2022-11-15T03:18:52;7.22;;;2.72;;
49237;SDS011;35069;47.906;1.892;2022-11-15T03:21:23;3.47;;;1.90;;
49237;SDS011;35069;47.906;1.892;2022-11-15T03:23:53;6.95;;;2.05;;
49237;SDS011;35069;47.906;1.892;2022-11-15T03:26:22;4.80;;;2.22;;
49237;SDS011;35069;47.906;1.892;2022-11-15T03:28:59;6.70;;;2.25;;
49237;SDS011;35069;47.906;1.892;2022-11-15T03:31:30;12.35;;;2.58;;
49237;SDS011;35069;47.906;1.892;2022-11-15T03:34:35;7.90;;;2.65;;
49237;SDS011;35069;47.906;1.892;2022-11-15T03:37:04;6.22;;;2.13;;
49237;SDS011;35069;47.906;1.892;2022-11-15T03:39:31;5.18;;;1.90;;
49237;SDS011;35069;47.906;1.892;2022-11-15T03:42:03;4.63;;;2.60;;
49237;SDS011;35069;47.906;1.892;2022-11-15T03:44:36;8.38;;;1.98;;
49237;SDS011;35069;47.906;1.892;2022-11-15T03:47:25;8.50;;;2.35;;
49237;SDS011;35069;47.906;1.892;2022-11-15T03:50:02;6.18;;;2.20;;
49237;SDS011;35069;47.906;1.892;2022-11-15T03:52:38;9.82;;;2.42;;
49237;SDS011;35069;47.906;1.892;2022-11-15T03:55:06;8.93;;;2.67;;
49237;SDS011;35069;47.906;1.892;2022-11-15T03:57:33;7.72;;;2.45;;
49237;SDS011;35069;47.906;1.892;2022-11-15T03:59:59;6.18;;;2.40;;
49237;SDS011;35069;47.906;1.892;2022-11-15T04:02:25;5.63;;;2.15;;
49237;SDS011;35069;47.906;1.892;2022-11-15T04:04:50;10.93;;;2.10;;
49237;SDS011;35069;47.906;1.892;2022-11-15T04:07:16;5.63;;;2.00;;
49237;SDS011;35069;47.906;1.892;2022-11-15T04:09:41;13.02;;;2.22;;
49237;SDS011;35069;47.906;1.892;2022-11-15T04:12:25;6.38;;;2.25;;
49237;SDS011;35069;47.906;1.892;2022-11-15T04:14:58;12.02;;;3.33;;
49237;SDS011;35069;47.906;1.892;2022-11-15T04:17:42;5.20;;;2.47;;
49237;SDS011;35069;47.906;1.892;2022-11-15T04:20:17;6.85;;;2.42;;
49237;SDS011;35069;47.906;1.892;2022-11-15T04:23:02;10.13;;;2.20;;
49237;SDS011;35069;47.906;1.892;2022-11-15T04:25:49;4.60;;;1.90;;
49237;SDS011;35069;47.906;1.892;2022-11-15T04:28:17;5.78;;;2.92;;
49237;SDS011;35069;47.906;1.892;2022-11-15T04:30:43;13.77;;;2.60;;
49237;SDS011;35069;47.906;1.892;2022-11-15T04:33:08;5.97;;;2.30;;
49237;SDS011;35069;47.906;1.892;2022-11-15T04:35:34;6.10;;;1.92;;
49237;SDS011;35069;47.906;1.892;2022-11-15T04:38:00;6.47;;;2.20;;
49237;SDS011;35069;47.906;1.892;2022-11-15T04:40:26;9.15;;;2.50;;
49237;SDS011;35069;47.906;1.892;2022-11-15T04:42:52;8.50;;;3.00;;
49237;SDS011;35069;47.906;1.892;2022-11-15T04:45:17;5.47;;;2.00;;
49237;SDS011;35069;47.906;1.892;2022-11-15T04:47:44;5.53;;;2.00;;
49237;SDS011;35069;47.906;1.892;2022-11-15T04:50:10;9.05;;;1.92;;
49237;SDS011;35069;47.906;1.892;2022-11-15T04:52:39;5.82;;;2.40;;
49237;SDS011;35069;47.906;1.892;2022-11-15T04:55:06;13.40;;;4.70;;
49237;SDS011;35069;47.906;1.892;2022-11-15T04:57:32;4.85;;;1.60;;
49237;SDS011;35069;47.906;1.892;2022-11-15T04:59:57;7.10;;;2.33;;
49237;SDS011;35069;47.906;1.892;2022-11-15T05:02:23;5.63;;;2.15;;
49237;SDS011;35069;47.906;1.892;2022-11-15T05:04:48;6.93;;;2.65;;
49237;SDS011;35069;47.906;1.892;2022-11-15T05:07:14;7.05;;;1.80;;
49237;SDS011;35069;47.906;1.892;2022-11-15T05:09:39;6.22;;;2.28;;
49237;SDS011;35069;47.906;1.892;2022-11-15T05:12:05;10.63;;;2.25;;
49237;SDS011;35069;47.906;1.892;2022-11-15T05:14:31;3.83;;;1.77;;
49237;SDS011;35069;47.906;1.892;2022-11-15T05:16:56;5.30;;;3.35;;
49237;SDS011;35069;47.906;1.892;2022-11-15T05:19:22;4.68;;;1.58;;
49237;SDS011;35069;47.906;1.892;2022-11-15T05:21:48;4.78;;;1.73;;
49237;SDS011;35069;47.906;1.892;2022-11-15T05:24:13;3.72;;;2.00;;
49237;SDS011;35069;47.906;1.892;2022-11-15T05:26:39;5.07;;;2.00;;
49237;SDS011;35069;47.906;1.892;2022-11-15T05:29:05;4.57;;;2.10;;
49237;SDS011;35069;47.906;1.892;2022-11-15T05:31:30;6.05;;;1.90;;
49237;SDS011;35069;47.906;1.892;2022-11-15T05:33:56;11.75;;;2.83;;
49237;SDS011;35069;47.906;1.892;2022-11-15T05:36:37;4.43;;;1.95;;
49237;SDS011;35069;47.906;1.892;2022-11-15T05:39:06;6.28;;;1.80;;
49237;SDS011;35069;47.906;1.892;2022-11-15T05:41:39;7.18;;;1.88;;
49237;SDS011;35069;47.906;1.892;2022-11-15T05:44:10;3.63;;;1.92;;
49237;SDS011;35069;47.906;1.892;2022-11-15T05:46:37;5.68;;;1.80;;
49237;SDS011;35069;47.906;1.892;2022-11-15T05:49:05;4.93;;;2.38;;
49237;SDS011;35069;47.906;1.892;2022-11-15T05:51:32;8.68;;;2.45;;
49237;SDS011;35069;47.906;1.892;2022-11-15T05:53:58;7.93;;;1.98;;
49237;SDS011;35069;47.906;1.892;2022-11-15T05:56:26;6.85;;;2.20;;
49237;SDS011;35069;47.906;1.892;2022-11-15T05:58:53;4.75;;;1.52;;
49237;SDS011;35069;47.906;1.892;2022-11-15T06:01:20;5.75;;;1.40;;
49237;SDS011;35069;47.906;1.892;2022-11-15T06:03:46;4.53;;;2.95;;
49237;SDS011;35069;47.906;1.892;2022-11-15T06:06:12;6.68;;;1.92;;
49237;SDS011;35069;47.906;1.892;2022-11-15T06:08:37;3.70;;;1.75;;
49237;SDS011;35069;47.906;1.892;2022-11-15T06:11:03;3.05;;;1.67;;
49237;SDS011;35069;47.906;1.892;2022-11-15T06:13:30;6.55;;;2.20;;
49237;SDS011;35069;47.906;1.892;2022-11-15T06:15:56;4.10;;;2.13;;
49237;SDS011;35069;47.906;1.892;2022-11-15T06:18:21;6.10;;;1.70;;
49237;SDS011;35069;47.906;1.892;2022-11-15T06:20:47;4.28;;;1.77;;
49237;SDS011;35069;47.906;1.892;2022-11-15T06:23:13;4.80;;;2.42;;
49237;SDS011;35069;47.906;1.892;2022-11-15T06:25:38;3.80;;;2.22;;
49237;SDS011;35069;47.906;1.892;2022-11-15T06:28:04;10.20;;;2.40;;
49237;SDS011;35069;47.906;1.892;2022-11-15T06:30:29;3.05;;;1.58;;
49237;SDS011;35069;47.906;1.892;2022-11-15T06:32:59;3.85;;;1.80;;
49237;SDS011;35069;47.906;1.892;2022-11-15T06:35:26;4.43;;;2.30;;
49237;SDS011;35069;47.906;1.892;2022-11-15T06:37:52;2.22;;;1.80;;
49237;SDS011;35069;47.906;1.892;2022-11-15T06:40:18;8.48;;;2.45;;
49237;SDS011;35069;47.906;1.892;2022-11-15T06:42:43;4.97;;;2.20;;
49237;SDS011;35069;47.906;1.892;2022-11-15T06:45:09;6.20;;;3.78;;
49237;SDS011;35069;47.906;1.892;2022-11-15T06:47:35;5.25;;;2.17;;
49237;SDS011;35069;47.906;1.892;2022-11-15T06:50:00;4.68;;;2.35;;
49237;SDS011;35069;47.906;1.892;2022-11-15T06:52:26;7.82;;;1.88;;
49237;SDS011;35069;47.906;1.892;2022-11-15T06:54:57;7.85;;;2.20;;
49237;SDS011;35069;47.906;1.892;2022-11-15T06:57:22;8.88;;;2.17;;
49237;SDS011;35069;47.906;1.892;2022-11-15T06:59:48;4.80;;;1.90;;
49237;SDS011;35069;47.906;1.892;2022-11-15T07:02:13;2.83;;;2.08;;
49237;SDS011;35069;47.906;1.892;2022-11-15T07:04:39;2.55;;;1.83;;
49237;SDS011;35069;47.906;1.892;2022-11-15T07:07:05;10.43;;;2.30;;
49237;SDS011;35069;47.906;1.892;2022-11-15T07:09:30;10.43;;;1.67;;
49237;SDS011;35069;47.906;1.892;2022-11-15T07:11:56;9.77;;;2.03;;
49237;SDS011;35069;47.906;1.892;2022-11-15T07:14:22;4.97;;;1.98;;
49237;SDS011;35069;47.906;1.892;2022-11-15T07:16:47;4.30;;;1.88;;
49237;SDS011;35069;47.906;1.892;2022-11-15T07:19:13;3.83;;;2.00;;
49237;SDS011;35069;47.906;1.892;2022-11-15T07:21:38;2.95;;;1.65;;
49237;SDS011;35069;47.906;1.892;2022-11-15T07:24:04;3.42;;;1.70;;
49237;SDS011;35069;47.906;1.892;2022-11-15T07:26:30;4.15;;;1.70;;
49237;SDS011;35069;47.906;1.892;2022-11-15T07:28:55;11.43;;;3.65;;
49237;SDS011;35069;47.906;1.892;2022-11-15T07:31:21;6.50;;;1.60;;
49237;SDS011;35069;47.906;1.892;2022-11-15T07:33:47;8.15;;;1.42;;
49237;SDS011;35069;47.906;1.892;2022-11-15T07:36:12;7.32;;;1.88;;
49237;SDS011;35069;47.906;1.892;2022-11-15T07:38:38;2.40;;;1.38;;
49237;SDS011;35069;47.906;1.892;2022-11-15T07:41:04;2.40;;;1.60;;
49237;SDS011;35069;47.906;1.892;2022-11-15T07:43:31;8.15;;;1.40;;
49237;SDS011;35069;47.906;1.892;2022-11-15T07:45:58;5.10;;;1.58;;
49237;SDS011;35069;47.906;1.892;2022-11-15T07:48:24;2.38;;;1.73;;
49237;SDS011;35069;47.906;1.892;2022-11-15T07:50:50;4.75;;;1.35;;
49237;SDS011;35069;47.906;1.892;2022-11-15T07:53:15;6.40;;;1.40;;
49237;SDS011;35069;47.906;1.892;2022-11-15T07:55:41;9.93;;;1.73;;
49237;SDS011;35069;47.906;1.892;2022-11-15T07:58:08;4.00;;;1.27;;
49237;SDS011;35069;47.906;1.892;2022-11-15T08:00:35;2.65;;;1.20;;
49237;SDS011;35069;47.906;1.892;2022-11-15T08:03:05;4.32;;;1.67;;
49237;SDS011;35069;47.906;1.892;2022-11-15T08:05:33;3.70;;;1.40;;
49237;SDS011;35069;47.906;1.892;2022-11-15T08:07:59;2.30;;;1.52;;
49237;SDS011;35069;47.906;1.892;2022-11-15T08:10:25;2.58;;;1.35;;
49237;SDS011;35069;47.906;1.892;2022-11-15T08:12:58;2.97;;;1.30;;
49237;SDS011;35069;47.906;1.892;2022-11-15T08:15:24;3.83;;;1.63;;
49237;SDS011;35069;47.906;1.892;2022-11-15T08:17:55;5.28;;;2.20;;
49237;SDS011;35069;47.906;1.892;2022-11-15T08:20:21;4.10;;;1.30;;
49237;SDS011;35069;47.906;1.892;2022-11-15T08:22:48;2.70;;;1.23;;
49237;SDS011;35069;47.906;1.892;2022-11-15T08:25:13;3.05;;;1.30;;
49237;SDS011;35069;47.906;1.892;2022-11-15T08:27:39;4.50;;;1.52;;
49237;SDS011;35069;47.906;1.892;2022-11-15T08:30:04;11.57;;;2.00;;
49237;SDS011;35069;47.906;1.892;2022-11-15T08:32:31;3.63;;;1.23;;
49237;SDS011;35069;47.906;1.892;2022-11-15T08:34:57;5.93;;;1.35;;
49237;SDS011;35069;47.906;1.892;2022-11-15T08:37:22;4.80;;;2.38;;
49237;SDS011;35069;47.906;1.892;2022-11-15T08:39:48;3.13;;;1.08;;
49237;SDS011;35069;47.906;1.892;2022-11-15T08:42:14;2.60;;;1.60;;
49237;SDS011;35069;47.906;1.892;2022-11-15T08:44:41;5.03;;;1.70;;
49237;SDS011;35069;47.906;1.892;2022-11-15T08:47:07;3.08;;;1.20;;
49237;SDS011;35069;47.906;1.892;2022-11-15T08:49:35;3.10;;;1.33;;
49237;SDS011;35069;47.906;1.892;2022-11-15T08:52:01;3.28;;;1.30;;
49237;SDS011;35069;47.906;1.892;2022-11-15T08:54:26;5.28;;;1.98;;
49237;SDS011;35069;47.906;1.892;2022-11-15T08:56:52;3.63;;;1.67;;
49237;SDS011;35069;47.906;1.892;2022-11-15T08:59:17;5.13;;;1.15;;
49237;SDS011;35069;47.906;1.892;2022-11-15T09:01:43;5.80;;;1.27;;
49237;SDS011;35069;47.906;1.892;2022-11-15T09:04:08;1.05;;;1.02;;
49237;SDS011;35069;47.906;1.892;2022-11-15T09:06:34;4.72;;;1.40;;
49237;SDS011;35069;47.906;1.892;2022-11-15T09:09:00;2.85;;;1.90;;
49237;SDS011;35069;47.906;1.892;2022-11-15T09:11:26;2.33;;;1.50;;
49237;SDS011;35069;47.906;1.892;2022-11-15T09:13:53;2.78;;;1.35;;
49237;SDS011;35069;47.906;1.892;2022-11-15T09:16:19;2.67;;;0.80;;
49237;SDS011;35069;47.906;1.892;2022-11-15T09:18:44;5.90;;;1.10;;
49237;SDS011;35069;47.906;1.892;2022-11-15T09:21:10;3.60;;;1.55;;
49237;SDS011;35069;47.906;1.892;2022-11-15T09:23:36;2.78;;;1.20;;
49237;SDS011;35069;47.906;1.892;2022-11-15T09:26:03;1.23;;;1.00;;
49237;SDS011;35069;47.906;1.892;2022-11-15T09:28:29;2.53;;;2.20;;
49237;SDS011;35069;47.906;1.892;2022-11-15T09:30:56;3.53;;;1.20;;
49237;SDS011;35069;47.906;1.892;2022-11-15T09:33:23;2.15;;;1.00;;
49237;SDS011;35069;47.906;1.892;2022-11-15T09:35:49;5.50;;;1.23;;
49237;SDS011;35069;47.906;1.892;2022-11-15T09:38:15;3.63;;;1.40;;
49237;SDS011;35069;47.906;1.892;2022-11-15T09:40:40;5.40;;;1.40;;
49237;SDS011;35069;47.906;1.892;2022-11-15T09:51:06;2.85;;;1.35;;
49237;SDS011;35069;47.906;1.892;2022-11-15T09:56:26;2.65;;;1.88;;
49237;SDS011;35069;47.906;1.892;2022-11-15T10:01:50;7.25;;;1.58;;
49237;SDS011;35069;47.906;1.892;2022-11-15T10:04:23;3.28;;;1.35;;
49237;SDS011;35069;47.906;1.892;2022-11-15T10:06:54;3.20;;;1.45;;
49237;SDS011;35069;47.906;1.892;2022-11-15T10:12:28;2.67;;;1.50;;
49237;SDS011;35069;47.906;1.892;2022-11-15T10:14:59;3.22;;;1.20;;
49237;SDS011;35069;47.906;1.892;2022-11-15T10:20:13;3.40;;;1.60;;
49237;SDS011;35069;47.906;1.892;2022-11-15T10:25:23;2.83;;;1.60;;
49237;SDS011;35069;47.906;1.892;2022-11-15T10:28:06;3.35;;;2.13;;
49237;SDS011;35069;47.906;1.892;2022-11-15T10:30:44;6.55;;;2.38;;
49237;SDS011;35069;47.906;1.892;2022-11-15T10:33:29;2.47;;;1.90;;
49237;SDS011;35069;47.906;1.892;2022-11-15T10:36:18;6.65;;;2.53;;
49237;SDS011;35069;47.906;1.892;2022-11-15T10:46:33;7.28;;;2.30;;
49237;SDS011;35069;47.906;1.892;2022-11-15T10:49:11;4.00;;;2.45;;
49237;SDS011;35069;47.906;1.892;2022-11-15T10:51:40;5.28;;;2.13;;
49237;SDS011;35069;47.906;1.892;2022-11-15T10:54:12;8.15;;;2.42;;
49237;SDS011;35069;47.906;1.892;2022-11-15T10:56:53;7.63;;;2.53;;
49237;SDS011;35069;47.906;1.892;2022-11-15T10:59:25;7.85;;;2.95;;
49237;SDS011;35069;47.906;1.892;2022-11-15T11:01:56;7.05;;;2.22;;
49237;SDS011;35069;47.906;1.892;2022-11-15T11:04:22;6.80;;;2.88;;
49237;SDS011;35069;47.906;1.892;2022-11-15T11:09:34;3.72;;;2.05;;
49237;SDS011;35069;47.906;1.892;2022-11-15T11:12:02;3.53;;;2.05;;
49237;SDS011;35069;47.906;1.892;2022-11-15T11:14:32;16.17;;;5.40;;
49237;SDS011;35069;47.906;1.892;2022-11-15T11:17:06;2.47;;;1.95;;
49237;SDS011;35069;47.906;1.892;2022-11-15T11:19:48;6.13;;;3.33;;
49237;SDS011;35069;47.906;1.892;2022-11-15T11:22:26;7.55;;;2.75;;
49237;SDS011;35069;47.906;1.892;2022-11-15T11:25:24;3.00;;;2.55;;
49237;SDS011;35069;47.906;1.892;2022-11-15T11:39:45;3.33;;;2.85;;
49237;SDS011;35069;47.906;1.892;2022-11-15T11:51:18;7.40;;;2.75;;
49237;SDS011;35069;47.906;1.892;2022-11-15T11:58:48;3.67;;;3.25;;
49237;SDS011;35069;47.906;1.892;2022-11-15T12:01:20;3.38;;;2.50;;
49237;SDS011;35069;47.906;1.892;2022-11-15T12:03:55;6.05;;;2.78;;
49237;SDS011;35069;47.906;1.892;2022-11-15T12:11:54;7.45;;;3.50;;
49237;SDS011;35069;47.906;1.892;2022-11-15T12:17:10;3.97;;;2.78;;
49237;SDS011;35069;47.906;1.892;2022-11-15T12:19:37;3.00;;;2.70;;
49237;SDS011;35069;47.906;1.892;2022-11-15T12:22:17;3.25;;;2.75;;
49237;SDS011;35069;47.906;1.892;2022-11-15T12:30:22;9.30;;;4.20;;
49237;SDS011;35069;47.906;1.892;2022-11-15T12:32:52;4.68;;;2.88;;
49237;SDS011;35069;47.906;1.892;2022-11-15T12:35:36;8.88;;;4.13;;
49237;SDS011;35069;47.906;1.892;2022-11-15T12:38:08;4.63;;;3.33;;
49237;SDS011;35069;47.906;1.892;2022-11-15T12:40:36;4.40;;;3.33;;
49237;SDS011;35069;47.906;1.892;2022-11-15T12:43:05;6.13;;;3.80;;
49237;SDS011;35069;47.906;1.892;2022-11-15T12:45:37;8.40;;;3.90;;
49237;SDS011;35069;47.906;1.892;2022-11-15T13:01:06;6.47;;;3.95;;
49237;SDS011;35069;47.906;1.892;2022-11-15T13:03:32;6.70;;;3.63;;
49237;SDS011;35069;47.906;1.892;2022-11-15T13:05:59;6.95;;;3.75;;
49237;SDS011;35069;47.906;1.892;2022-11-15T13:08:35;7.90;;;3.92;;
49237;SDS011;35069;47.906;1.892;2022-11-15T13:17:02;4.95;;;3.53;;
49237;SDS011;35069;47.906;1.892;2022-11-15T13:19:42;6.25;;;3.80;;
49237;SDS011;35069;47.906;1.892;2022-11-15T13:22:11;6.43;;;5.05;;
49237;SDS011;35069;47.906;1.892;2022-11-15T13:24:55;5.57;;;3.67;;
49237;SDS011;35069;47.906;1.892;2022-11-15T13:27:22;7.32;;;4.20;;
49237;SDS011;35069;47.906;1.892;2022-11-15T13:29:47;7.15;;;4.30;;
49237;SDS011;35069;47.906;1.892;2022-11-15T13:32:13;5.95;;;3.30;;
49237;SDS011;35069;47.906;1.892;2022-11-15T13:34:44;5.72;;;3.65;;
49237;SDS011;35069;47.906;1.892;2022-11-15T13:39:46;5.15;;;3.67;;
49237;SDS011;35069;47.906;1.892;2022-11-15T13:42:17;7.47;;;4.45;;
49237;SDS011;35069;47.906;1.892;2022-11-15T13:44:54;9.68;;;4.30;;
49237;SDS011;35069;47.906;1.892;2022-11-15T13:47:21;6.35;;;4.15;;
49237;SDS011;35069;47.906;1.892;2022-11-15T13:49:56;7.13;;;4.35;;
49237;SDS011;35069;47.906;1.892;2022-11-15T13:52:22;3.90;;;3.17;;
49237;SDS011;35069;47.906;1.892;2022-11-15T14:00:19;4.90;;;3.75;;
49237;SDS011;35069;47.906;1.892;2022-11-15T14:02:53;6.68;;;3.83;;
49237;SDS011;35069;47.906;1.892;2022-11-15T14:05:20;6.75;;;3.83;;
49237;SDS011;35069;47.906;1.892;2022-11-15T14:08:12;7.90;;;3.78;;
49237;SDS011;35069;47.906;1.892;2022-11-15T14:11:04;5.90;;;3.78;;
49237;SDS011;35069;47.906;1.892;2022-11-15T14:16:37;7.32;;;4.30;;
49237;SDS011;35069;47.906;1.892;2022-11-15T14:19:08;7.57;;;3.33;;
49237;SDS011;35069;47.906;1.892;2022-11-15T14:21:36;4.18;;;3.47;;
49237;SDS011;35069;47.906;1.892;2022-11-15T14:24:19;5.22;;;3.55;;
49237;SDS011;35069;47.906;1.892;2022-11-15T14:26:46;4.35;;;3.65;;
49237;SDS011;35069;47.906;1.892;2022-11-15T14:29:30;6.07;;;3.92;;
49237;SDS011;35069;47.906;1.892;2022-11-15T14:32:12;4.13;;;3.60;;
49237;SDS011;35069;47.906;1.892;2022-11-15T14:34:49;5.75;;;3.38;;
49237;SDS011;35069;47.906;1.892;2022-11-15T14:39:47;6.93;;;3.92;;
49237;SDS011;35069;47.906;1.892;2022-11-15T14:42:13;7.30;;;4.00;;
49237;SDS011;35069;47.906;1.892;2022-11-15T14:44:39;6.68;;;3.70;;
49237;SDS011;35069;47.906;1.892;2022-11-15T14:47:06;8.48;;;4.47;;
49237;SDS011;35069;47.906;1.892;2022-11-15T14:49:31;5.97;;;3.75;;
49237;SDS011;35069;47.906;1.892;2022-11-15T14:51:57;4.88;;;3.80;;
49237;SDS011;35069;47.906;1.892;2022-11-15T14:54:22;7.15;;;4.00;;
49237;SDS011;35069;47.906;1.892;2022-11-15T14:56:48;4.30;;;3.65;;
49237;SDS011;35069;47.906;1.892;2022-11-15T14:59:14;7.53;;;4.63;;
49237;SDS011;35069;47.906;1.892;2022-11-15T15:01:39;7.07;;;3.80;;
49237;SDS011;35069;47.906;1.892;2022-11-15T15:04:05;5.22;;;3.72;;
49237;SDS011;35069;47.906;1.892;2022-11-15T15:06:30;7.95;;;3.88;;
49237;SDS011;35069;47.906;1.892;2022-11-15T15:08:56;8.68;;;4.25;;
49237;SDS011;35069;47.906;1.892;2022-11-15T15:11:25;4.70;;;3.65;;
49237;SDS011;35069;47.906;1.892;2022-11-15T15:13:53;7.88;;;3.40;;
49237;SDS011;35069;47.906;1.892;2022-11-15T15:16:21;6.80;;;4.35;;
49237;SDS011;35069;47.906;1.892;2022-11-15T15:18:48;5.60;;;3.97;;
49237;SDS011;35069;47.906;1.892;2022-11-15T15:21:22;6.43;;;3.60;;
49237;SDS011;35069;47.906;1.892;2022-11-15T15:23:49;6.35;;;4.20;;
49237;SDS011;35069;47.906;1.892;2022-11-15T15:26:15;8.32;;;4.13;;
49237;SDS011;35069;47.906;1.892;2022-11-15T15:28:41;7.65;;;3.90;;
49237;SDS011;35069;47.906;1.892;2022-11-15T15:31:07;6.32;;;3.63;;
49237;SDS011;35069;47.906;1.892;2022-11-15T15:33:36;8.05;;;3.80;;
49237;SDS011;35069;47.906;1.892;2022-11-15T15:36:02;4.53;;;3.17;;
49237;SDS011;35069;47.906;1.892;2022-11-15T15:38:28;4.82;;;3.40;;
49237;SDS011;35069;47.906;1.892;2022-11-15T15:40:54;4.93;;;4.10;;
49237;SDS011;35069;47.906;1.892;2022-11-15T15:43:20;5.45;;;3.35;;
49237;SDS011;35069;47.906;1.892;2022-11-15T15:45:45;3.95;;;3.65;;
49237;SDS011;35069;47.906;1.892;2022-11-15T15:48:12;6.35;;;3.33;;
49237;SDS011;35069;47.906;1.892;2022-11-15T15:50:39;5.60;;;3.70;;
49237;SDS011;35069;47.906;1.892;2022-11-15T15:53:04;5.60;;;3.28;;
49237;SDS011;35069;47.906;1.892;2022-11-15T15:55:30;8.63;;;4.10;;
49237;SDS011;35069;47.906;1.892;2022-11-15T15:57:56;4.43;;;3.70;;
49237;SDS011;35069;47.906;1.892;2022-11-15T16:00:23;5.05;;;2.80;;
49237;SDS011;35069;47.906;1.892;2022-11-15T16:02:50;4.53;;;3.78;;
49237;SDS011;35069;47.906;1.892;2022-11-15T16:05:17;4.70;;;3.47;;
49237;SDS011;35069;47.906;1.892;2022-11-15T16:07:43;4.53;;;3.28;;
49237;SDS011;35069;47.906;1.892;2022-11-15T16:10:28;3.78;;;3.20;;
49237;SDS011;35069;47.906;1.892;2022-11-15T16:12:56;6.35;;;4.97;;
49237;SDS011;35069;47.906;1.892;2022-11-15T16:15:23;3.83;;;3.00;;
49237;SDS011;35069;47.906;1.892;2022-11-15T16:17:51;3.13;;;2.78;;
49237;SDS011;35069;47.906;1.892;2022-11-15T16:22:56;4.65;;;2.85;;
49237;SDS011;35069;47.906;1.892;2022-11-15T16:25:21;5.72;;;3.58;;
49237;SDS011;35069;47.906;1.892;2022-11-15T16:27:47;5.93;;;2.97;;
49237;SDS011;35069;47.906;1.892;2022-11-15T16:30:14;3.33;;;2.33;;
49237;SDS011;35069;47.906;1.892;2022-11-15T16:32:41;5.22;;;3.13;;
49237;SDS011;35069;47.906;1.892;2022-11-15T16:35:07;11.52;;;5.32;;
49237;SDS011;35069;47.906;1.892;2022-11-15T16:37:40;11.73;;;4.32;;
49237;SDS011;35069;47.906;1.892;2022-11-15T16:40:25;12.80;;;3.83;;
49237;SDS011;35069;47.906;1.892;2022-11-15T16:42:56;8.25;;;3.53;;
49237;SDS011;35069;47.906;1.892;2022-11-15T16:45:22;14.23;;;4.07;;
49237;SDS011;35069;47.906;1.892;2022-11-15T16:47:48;4.20;;;3.03;;
49237;SDS011;35069;47.906;1.892;2022-11-15T16:50:18;4.22;;;3.10;;
49237;SDS011;35069;47.906;1.892;2022-11-15T16:52:53;4.75;;;4.22;;
49237;SDS011;35069;47.906;1.892;2022-11-15T16:55:21;9.93;;;4.70;;
49237;SDS011;35069;47.906;1.892;2022-11-15T16:57:48;5.50;;;3.63;;
49237;SDS011;35069;47.906;1.892;2022-11-15T17:00:15;3.85;;;3.10;;
49237;SDS011;35069;47.906;1.892;2022-11-15T17:02:43;5.93;;;2.92;;
49237;SDS011;35069;47.906;1.892;2022-11-15T17:05:13;5.05;;;2.47;;
49237;SDS011;35069;47.906;1.892;2022-11-15T17:07:40;8.00;;;3.33;;
49237;SDS011;35069;47.906;1.892;2022-11-15T17:10:06;6.10;;;2.83;;
49237;SDS011;35069;47.906;1.892;2022-11-15T17:12:34;9.38;;;3.08;;
49237;SDS011;35069;47.906;1.892;2022-11-15T17:15:00;4.78;;;3.28;;
49237;SDS011;35069;47.906;1.892;2022-11-15T17:17:27;4.68;;;2.72;;
49237;SDS011;35069;47.906;1.892;2022-11-15T17:19:52;3.30;;;2.95;;
49237;SDS011;35069;47.906;1.892;2022-11-15T17:22:18;5.43;;;3.50;;